sensor_id;sensor_type;location;lat;lon;timestamp;temperature;humidity
23371;DHT22;11858;51.056;3.712;2023-04-25T00:00:19;9.60;99.90
23371;DHT22;11858;51.056;3.712;2023-04-25T00:02:45;9.60;99.90
23371;DHT22;11858;51.056;3.712;2023-04-25T00:05:12;9.60;99.90
23371;DHT22;11858;51.056;3.712;2023-04-25T00:07:40;9.60;99.90
23371;DHT22;11858;51.056;3.712;2023-04-25T00:10:08;9.60;99.90
23371;DHT22;11858;51.056;3.712;2023-04-25T00:12:34;9.50;99.90
23371;DHT22;11858;51.056;3.712;2023-04-25T00:15:01;9.50;99.90
23371;DHT22;11858;51.056;3.712;2023-04-25T00:17:27;9.50;99.90
23371;DHT22;11858;51.056;3.712;2023-04-25T00:19:53;9.50;99.90
23371;DHT22;11858;51.056;3.712;2023-04-25T00:22:19;9.50;99.90
23371;DHT22;11858;51.056;3.712;2023-04-25T00:24:44;9.50;99.90
23371;DHT22;11858;51.056;3.712;2023-04-25T00:27:10;9.50;99.90
23371;DHT22;11858;51.056;3.712;2023-04-25T00:29:36;9.50;99.90
23371;DHT22;11858;51.056;3.712;2023-04-25T00:32:02;9.50;99.90
23371;DHT22;11858;51.056;3.712;2023-04-25T00:34:27;9.40;99.90
23371;DHT22;11858;51.056;3.712;2023-04-25T00:36:53;9.50;99.90
23371;DHT22;11858;51.056;3.712;2023-04-25T00:39:19;9.50;99.90
23371;DHT22;11858;51.056;3.712;2023-04-25T00:41:45;9.40;99.90
23371;DHT22;11858;51.056;3.712;2023-04-25T00:44:11;9.40;99.90
23371;DHT22;11858;51.056;3.712;2023-04-25T00:46:38;9.40;99.90
23371;DHT22;11858;51.056;3.712;2023-04-25T00:49:04;9.40;99.90
23371;DHT22;11858;51.056;3.712;2023-04-25T00:51:31;9.40;99.90
23371;DHT22;11858;51.056;3.712;2023-04-25T00:53:58;9.40;99.90
23371;DHT22;11858;51.056;3.712;2023-04-25T00:56:24;9.40;99.90
23371;DHT22;11858;51.056;3.712;2023-04-25T00:58:53;9.40;99.90
23371;DHT22;11858;51.056;3.712;2023-04-25T01:01:22;9.40;99.90
23371;DHT22;11858;51.056;3.712;2023-04-25T01:03:49;9.40;99.90
23371;DHT22;11858;51.056;3.712;2023-04-25T01:06:15;9.30;99.90
23371;DHT22;11858;51.056;3.712;2023-04-25T01:08:41;9.30;99.90
23371;DHT22;11858;51.056;3.712;2023-04-25T01:11:07;9.30;99.90
23371;DHT22;11858;51.056;3.712;2023-04-25T01:13:33;9.30;99.90
23371;DHT22;11858;51.056;3.712;2023-04-25T01:16:00;9.30;99.90
23371;DHT22;11858;51.056;3.712;2023-04-25T01:18:26;9.20;99.90
23371;DHT22;11858;51.056;3.712;2023-04-25T01:20:52;9.20;99.90
23371;DHT22;11858;51.056;3.712;2023-04-25T01:23:20;9.20;99.90
23371;DHT22;11858;51.056;3.712;2023-04-25T01:25:46;9.20;99.90
23371;DHT22;11858;51.056;3.712;2023-04-25T01:28:13;9.20;99.90
23371;DHT22;11858;51.056;3.712;2023-04-25T01:30:39;9.10;99.90
23371;DHT22;11858;51.056;3.712;2023-04-25T01:33:05;9.00;99.90
23371;DHT22;11858;51.056;3.712;2023-04-25T01:35:32;9.00;99.90
23371;DHT22;11858;51.056;3.712;2023-04-25T01:37:59;9.10;99.90
23371;DHT22;11858;51.056;3.712;2023-04-25T01:40:24;9.00;99.90
23371;DHT22;11858;51.056;3.712;2023-04-25T01:42:51;9.10;99.90
23371;DHT22;11858;51.056;3.712;2023-04-25T01:45:17;9.00;99.90
23371;DHT22;11858;51.056;3.712;2023-04-25T01:47:43;9.00;99.90
23371;DHT22;11858;51.056;3.712;2023-04-25T01:50:12;9.00;99.90
23371;DHT22;11858;51.056;3.712;2023-04-25T01:52:38;9.00;99.90
23371;DHT22;11858;51.056;3.712;2023-04-25T01:55:05;9.00;99.90
23371;DHT22;11858;51.056;3.712;2023-04-25T01:57:31;9.00;99.90
23371;DHT22;11858;51.056;3.712;2023-04-25T02:00:02;9.00;99.90
23371;DHT22;11858;51.056;3.712;2023-04-25T02:02:28;8.90;99.90
23371;DHT22;11858;51.056;3.712;2023-04-25T02:04:54;8.80;99.90
23371;DHT22;11858;51.056;3.712;2023-04-25T02:07:20;8.80;99.90
23371;DHT22;11858;51.056;3.712;2023-04-25T02:09:46;8.80;99.90
23371;DHT22;11858;51.056;3.712;2023-04-25T02:12:11;8.80;99.90
23371;DHT22;11858;51.056;3.712;2023-04-25T02:14:37;8.90;99.90
23371;DHT22;11858;51.056;3.712;2023-04-25T02:17:03;8.80;99.90
23371;DHT22;11858;51.056;3.712;2023-04-25T02:19:29;8.80;99.90
23371;DHT22;11858;51.056;3.712;2023-04-25T02:21:55;8.80;99.90
23371;DHT22;11858;51.056;3.712;2023-04-25T02:24:22;8.80;99.90
23371;DHT22;11858;51.056;3.712;2023-04-25T02:26:48;8.70;99.90
23371;DHT22;11858;51.056;3.712;2023-04-25T02:29:15;8.80;99.90
23371;DHT22;11858;51.056;3.712;2023-04-25T02:31:41;8.80;99.90
23371;DHT22;11858;51.056;3.712;2023-04-25T02:34:06;8.70;99.90
23371;DHT22;11858;51.056;3.712;2023-04-25T02:36:32;8.60;99.90
23371;DHT22;11858;51.056;3.712;2023-04-25T02:39:00;8.70;99.90
23371;DHT22;11858;51.056;3.712;2023-04-25T02:41:26;8.70;99.90
23371;DHT22;11858;51.056;3.712;2023-04-25T02:43:52;8.60;99.90
23371;DHT22;11858;51.056;3.712;2023-04-25T02:46:18;8.60;99.90
23371;DHT22;11858;51.056;3.712;2023-04-25T02:48:43;8.50;99.90
23371;DHT22;11858;51.056;3.712;2023-04-25T02:51:09;8.50;99.90
23371;DHT22;11858;51.056;3.712;2023-04-25T02:53:35;8.60;99.90
23371;DHT22;11858;51.056;3.712;2023-04-25T02:56:01;8.60;99.90
23371;DHT22;11858;51.056;3.712;2023-04-25T02:58:26;8.60;99.90
23371;DHT22;11858;51.056;3.712;2023-04-25T03:00:52;8.50;99.90
23371;DHT22;11858;51.056;3.712;2023-04-25T03:03:18;8.50;99.90
23371;DHT22;11858;51.056;3.712;2023-04-25T03:05:50;8.50;99.90
23371;DHT22;11858;51.056;3.712;2023-04-25T03:08:16;8.50;99.90
23371;DHT22;11858;51.056;3.712;2023-04-25T03:10:43;8.40;99.90
23371;DHT22;11858;51.056;3.712;2023-04-25T03:13:08;8.50;99.90
23371;DHT22;11858;51.056;3.712;2023-04-25T03:15:35;8.50;99.90
23371;DHT22;11858;51.056;3.712;2023-04-25T03:18:01;8.50;99.90
23371;DHT22;11858;51.056;3.712;2023-04-25T03:20:27;8.40;99.90
23371;DHT22;11858;51.056;3.712;2023-04-25T03:22:53;8.50;99.90
23371;DHT22;11858;51.056;3.712;2023-04-25T03:25:18;8.50;99.90
23371;DHT22;11858;51.056;3.712;2023-04-25T03:27:44;8.40;99.90
23371;DHT22;11858;51.056;3.712;2023-04-25T03:30:13;8.40;99.90
23371;DHT22;11858;51.056;3.712;2023-04-25T03:32:39;8.30;99.90
23371;DHT22;11858;51.056;3.712;2023-04-25T03:35:05;8.50;99.90
23371;DHT22;11858;51.056;3.712;2023-04-25T03:37:30;8.50;99.90
23371;DHT22;11858;51.056;3.712;2023-04-25T03:39:56;8.40;99.90
23371;DHT22;11858;51.056;3.712;2023-04-25T03:42:22;8.30;99.90
23371;DHT22;11858;51.056;3.712;2023-04-25T03:44:49;8.30;99.90
23371;DHT22;11858;51.056;3.712;2023-04-25T03:47:14;8.20;99.90
23371;DHT22;11858;51.056;3.712;2023-04-25T03:49:41;8.20;99.90
23371;DHT22;11858;51.056;3.712;2023-04-25T03:52:07;8.20;99.90
23371;DHT22;11858;51.056;3.712;2023-04-25T03:54:32;8.20;99.90
23371;DHT22;11858;51.056;3.712;2023-04-25T03:56:58;8.20;99.90
23371;DHT22;11858;51.056;3.712;2023-04-25T03:59:24;8.20;99.90
23371;DHT22;11858;51.056;3.712;2023-04-25T04:01:51;8.30;99.90
23371;DHT22;11858;51.056;3.712;2023-04-25T04:04:17;8.20;99.90
23371;DHT22;11858;51.056;3.712;2023-04-25T04:06:43;8.20;99.90
23371;DHT22;11858;51.056;3.712;2023-04-25T04:09:09;8.10;99.90
23371;DHT22;11858;51.056;3.712;2023-04-25T04:11:37;8.10;99.90
23371;DHT22;11858;51.056;3.712;2023-04-25T04:14:04;8.10;99.90
23371;DHT22;11858;51.056;3.712;2023-04-25T04:16:30;8.10;99.90
23371;DHT22;11858;51.056;3.712;2023-04-25T04:18:56;8.10;99.90
23371;DHT22;11858;51.056;3.712;2023-04-25T04:21:22;8.20;99.90
23371;DHT22;11858;51.056;3.712;2023-04-25T04:23:47;8.20;99.90
23371;DHT22;11858;51.056;3.712;2023-04-25T04:26:13;8.20;99.90
23371;DHT22;11858;51.056;3.712;2023-04-25T04:28:42;8.10;99.90
23371;DHT22;11858;51.056;3.712;2023-04-25T04:31:08;8.10;99.90
23371;DHT22;11858;51.056;3.712;2023-04-25T04:33:34;8.10;99.90
23371;DHT22;11858;51.056;3.712;2023-04-25T04:36:00;8.20;99.90
23371;DHT22;11858;51.056;3.712;2023-04-25T04:38:26;8.10;99.90
23371;DHT22;11858;51.056;3.712;2023-04-25T04:40:51;8.10;99.90
23371;DHT22;11858;51.056;3.712;2023-04-25T04:43:17;8.20;99.90
23371;DHT22;11858;51.056;3.712;2023-04-25T04:45:44;8.10;99.90
23371;DHT22;11858;51.056;3.712;2023-04-25T04:48:09;8.10;99.90
23371;DHT22;11858;51.056;3.712;2023-04-25T04:50:39;8.00;99.90
23371;DHT22;11858;51.056;3.712;2023-04-25T04:53:05;8.00;99.90
23371;DHT22;11858;51.056;3.712;2023-04-25T04:55:31;8.10;99.90
23371;DHT22;11858;51.056;3.712;2023-04-25T04:57:56;8.10;99.90
23371;DHT22;11858;51.056;3.712;2023-04-25T05:00:22;8.10;99.90
23371;DHT22;11858;51.056;3.712;2023-04-25T05:02:48;8.00;99.90
23371;DHT22;11858;51.056;3.712;2023-04-25T05:05:14;8.00;99.90
23371;DHT22;11858;51.056;3.712;2023-04-25T05:07:39;8.00;99.90
23371;DHT22;11858;51.056;3.712;2023-04-25T05:10:05;8.00;99.90
23371;DHT22;11858;51.056;3.712;2023-04-25T05:12:31;8.00;99.90
23371;DHT22;11858;51.056;3.712;2023-04-25T05:14:57;8.00;99.90
23371;DHT22;11858;51.056;3.712;2023-04-25T05:17:23;8.30;99.90
23371;DHT22;11858;51.056;3.712;2023-04-25T05:19:48;8.30;99.90
23371;DHT22;11858;51.056;3.712;2023-04-25T05:22:14;8.30;99.90
23371;DHT22;11858;51.056;3.712;2023-04-25T05:24:39;8.30;99.90
23371;DHT22;11858;51.056;3.712;2023-04-25T05:27:05;8.30;99.90
23371;DHT22;11858;51.056;3.712;2023-04-25T05:29:31;8.50;99.90
23371;DHT22;11858;51.056;3.712;2023-04-25T05:31:57;8.40;99.90
23371;DHT22;11858;51.056;3.712;2023-04-25T05:34:22;8.40;99.90
23371;DHT22;11858;51.056;3.712;2023-04-25T05:36:48;8.40;99.90
23371;DHT22;11858;51.056;3.712;2023-04-25T05:39:16;8.40;99.90
23371;DHT22;11858;51.056;3.712;2023-04-25T05:41:42;8.50;99.90
23371;DHT22;11858;51.056;3.712;2023-04-25T05:44:08;8.70;99.90
23371;DHT22;11858;51.056;3.712;2023-04-25T05:46:34;8.70;99.90
23371;DHT22;11858;51.056;3.712;2023-04-25T05:49:00;8.80;99.90
23371;DHT22;11858;51.056;3.712;2023-04-25T05:51:26;8.90;99.90
23371;DHT22;11858;51.056;3.712;2023-04-25T05:53:53;8.90;99.90
23371;DHT22;11858;51.056;3.712;2023-04-25T05:56:18;8.90;99.90
23371;DHT22;11858;51.056;3.712;2023-04-25T05:58:44;9.00;99.90
23371;DHT22;11858;51.056;3.712;2023-04-25T06:01:11;9.20;99.90
23371;DHT22;11858;51.056;3.712;2023-04-25T06:03:37;9.20;99.90
23371;DHT22;11858;51.056;3.712;2023-04-25T06:06:03;9.20;99.90
23371;DHT22;11858;51.056;3.712;2023-04-25T06:08:29;9.10;99.90
23371;DHT22;11858;51.056;3.712;2023-04-25T06:10:55;9.10;99.90
23371;DHT22;11858;51.056;3.712;2023-04-25T06:13:21;9.20;99.90
23371;DHT22;11858;51.056;3.712;2023-04-25T06:15:47;9.20;99.90
23371;DHT22;11858;51.056;3.712;2023-04-25T06:18:12;9.30;99.90
23371;DHT22;11858;51.056;3.712;2023-04-25T06:20:38;9.40;99.90
23371;DHT22;11858;51.056;3.712;2023-04-25T06:23:03;9.50;99.90
23371;DHT22;11858;51.056;3.712;2023-04-25T06:25:30;9.60;99.90
23371;DHT22;11858;51.056;3.712;2023-04-25T06:27:55;9.60;99.90
23371;DHT22;11858;51.056;3.712;2023-04-25T06:30:21;9.80;99.90
23371;DHT22;11858;51.056;3.712;2023-04-25T06:32:53;9.90;99.90
23371;DHT22;11858;51.056;3.712;2023-04-25T06:35:20;9.90;99.90
23371;DHT22;11858;51.056;3.712;2023-04-25T06:37:46;9.80;99.90
23371;DHT22;11858;51.056;3.712;2023-04-25T06:40:11;9.70;99.90
23371;DHT22;11858;51.056;3.712;2023-04-25T06:42:37;9.70;99.90
23371;DHT22;11858;51.056;3.712;2023-04-25T06:45:03;9.70;99.90
23371;DHT22;11858;51.056;3.712;2023-04-25T06:47:29;9.70;99.90
23371;DHT22;11858;51.056;3.712;2023-04-25T06:49:55;9.60;99.90
23371;DHT22;11858;51.056;3.712;2023-04-25T06:52:21;9.60;99.90
23371;DHT22;11858;51.056;3.712;2023-04-25T06:54:46;9.70;99.90
23371;DHT22;11858;51.056;3.712;2023-04-25T06:57:12;9.80;99.90
23371;DHT22;11858;51.056;3.712;2023-04-25T06:59:38;9.90;99.90
23371;DHT22;11858;51.056;3.712;2023-04-25T07:02:04;10.00;99.90
23371;DHT22;11858;51.056;3.712;2023-04-25T07:04:31;10.20;99.90
23371;DHT22;11858;51.056;3.712;2023-04-25T07:06:57;10.40;99.90
23371;DHT22;11858;51.056;3.712;2023-04-25T07:09:23;10.50;99.90
23371;DHT22;11858;51.056;3.712;2023-04-25T07:11:48;10.60;99.90
23371;DHT22;11858;51.056;3.712;2023-04-25T07:14:14;10.50;99.90
23371;DHT22;11858;51.056;3.712;2023-04-25T07:16:40;10.80;99.90
23371;DHT22;11858;51.056;3.712;2023-04-25T07:19:06;10.80;99.90
23371;DHT22;11858;51.056;3.712;2023-04-25T07:21:31;11.20;99.90
23371;DHT22;11858;51.056;3.712;2023-04-25T07:23:58;11.60;99.90
23371;DHT22;11858;51.056;3.712;2023-04-25T07:26:23;11.90;99.90
23371;DHT22;11858;51.056;3.712;2023-04-25T07:28:49;12.00;99.90
23371;DHT22;11858;51.056;3.712;2023-04-25T07:31:17;12.00;99.90
23371;DHT22;11858;51.056;3.712;2023-04-25T07:33:44;12.00;99.90
23371;DHT22;11858;51.056;3.712;2023-04-25T07:36:10;12.00;99.90
23371;DHT22;11858;51.056;3.712;2023-04-25T07:38:36;12.20;99.90
23371;DHT22;11858;51.056;3.712;2023-04-25T07:41:02;12.70;99.90
23371;DHT22;11858;51.056;3.712;2023-04-25T07:43:27;13.30;99.90
23371;DHT22;11858;51.056;3.712;2023-04-25T07:45:53;13.90;99.90
23371;DHT22;11858;51.056;3.712;2023-04-25T07:48:18;14.80;99.90
23371;DHT22;11858;51.056;3.712;2023-04-25T07:50:44;15.60;99.90
23371;DHT22;11858;51.056;3.712;2023-04-25T07:53:10;16.30;99.90
23371;DHT22;11858;51.056;3.712;2023-04-25T07:55:36;16.50;99.90
23371;DHT22;11858;51.056;3.712;2023-04-25T07:58:08;16.70;99.90
23371;DHT22;11858;51.056;3.712;2023-04-25T08:00:34;17.30;99.90
23371;DHT22;11858;51.056;3.712;2023-04-25T08:03:00;17.30;99.90
23371;DHT22;11858;51.056;3.712;2023-04-25T08:05:25;16.50;99.90
23371;DHT22;11858;51.056;3.712;2023-04-25T08:07:51;16.30;99.90
23371;DHT22;11858;51.056;3.712;2023-04-25T08:10:17;15.60;99.90
23371;DHT22;11858;51.056;3.712;2023-04-25T08:12:42;15.20;99.90
23371;DHT22;11858;51.056;3.712;2023-04-25T08:15:09;14.80;99.90
23371;DHT22;11858;51.056;3.712;2023-04-25T08:17:34;14.20;99.90
23371;DHT22;11858;51.056;3.712;2023-04-25T08:20:00;13.60;99.90
23371;DHT22;11858;51.056;3.712;2023-04-25T08:22:28;13.60;99.90
23371;DHT22;11858;51.056;3.712;2023-04-25T08:24:54;13.70;99.90
23371;DHT22;11858;51.056;3.712;2023-04-25T08:27:19;15.70;99.90
23371;DHT22;11858;51.056;3.712;2023-04-25T08:29:46;16.50;99.90
23371;DHT22;11858;51.056;3.712;2023-04-25T08:32:11;17.70;99.90
23371;DHT22;11858;51.056;3.712;2023-04-25T08:34:37;18.30;99.90
23371;DHT22;11858;51.056;3.712;2023-04-25T08:37:04;18.20;99.90
23371;DHT22;11858;51.056;3.712;2023-04-25T08:39:31;17.40;99.90
23371;DHT22;11858;51.056;3.712;2023-04-25T08:41:56;16.70;99.90
23371;DHT22;11858;51.056;3.712;2023-04-25T08:44:22;16.40;99.90
23371;DHT22;11858;51.056;3.712;2023-04-25T08:46:49;16.40;99.90
23371;DHT22;11858;51.056;3.712;2023-04-25T08:49:17;16.20;99.90
23371;DHT22;11858;51.056;3.712;2023-04-25T08:51:47;17.10;99.90
23371;DHT22;11858;51.056;3.712;2023-04-25T08:54:14;18.30;99.90
23371;DHT22;11858;51.056;3.712;2023-04-25T08:56:44;19.40;99.90
23371;DHT22;11858;51.056;3.712;2023-04-25T08:59:13;20.30;99.90
23371;DHT22;11858;51.056;3.712;2023-04-25T09:01:40;21.60;99.90
23371;DHT22;11858;51.056;3.712;2023-04-25T09:04:05;21.10;97.40
23371;DHT22;11858;51.056;3.712;2023-04-25T09:06:32;19.40;97.80
23371;DHT22;11858;51.056;3.712;2023-04-25T09:09:05;18.80;99.60
23371;DHT22;11858;51.056;3.712;2023-04-25T09:11:32;16.80;99.90
23371;DHT22;11858;51.056;3.712;2023-04-25T09:14:19;15.70;99.90
23371;DHT22;11858;51.056;3.712;2023-04-25T09:19:29;13.60;99.90
23371;DHT22;11858;51.056;3.712;2023-04-25T09:21:57;12.80;99.90
23371;DHT22;11858;51.056;3.712;2023-04-25T09:24:31;12.60;99.90
23371;DHT22;11858;51.056;3.712;2023-04-25T09:26:57;12.10;99.90
23371;DHT22;11858;51.056;3.712;2023-04-25T09:29:29;11.90;99.90
23371;DHT22;11858;51.056;3.712;2023-04-25T09:34:46;12.10;99.90
23371;DHT22;11858;51.056;3.712;2023-04-25T09:39:49;12.00;99.90
23371;DHT22;11858;51.056;3.712;2023-04-25T09:42:16;12.30;99.90
23371;DHT22;11858;51.056;3.712;2023-04-25T09:44:45;13.70;99.90
23371;DHT22;11858;51.056;3.712;2023-04-25T09:47:13;16.00;99.90
23371;DHT22;11858;51.056;3.712;2023-04-25T09:49:40;18.30;99.90
23371;DHT22;11858;51.056;3.712;2023-04-25T09:52:07;18.80;99.90
23371;DHT22;11858;51.056;3.712;2023-04-25T09:54:33;19.30;99.90
23371;DHT22;11858;51.056;3.712;2023-04-25T09:57:14;19.40;99.90
23371;DHT22;11858;51.056;3.712;2023-04-25T09:59:49;19.80;99.90
23371;DHT22;11858;51.056;3.712;2023-04-25T10:02:19;18.60;99.90
23371;DHT22;11858;51.056;3.712;2023-04-25T10:04:48;18.00;99.90
23371;DHT22;11858;51.056;3.712;2023-04-25T10:07:15;17.10;99.90
23371;DHT22;11858;51.056;3.712;2023-04-25T10:09:42;16.40;99.90
23371;DHT22;11858;51.056;3.712;2023-04-25T10:12:08;15.90;99.90
23371;DHT22;11858;51.056;3.712;2023-04-25T10:14:35;15.80;99.90
23371;DHT22;11858;51.056;3.712;2023-04-25T10:17:01;15.00;99.90
23371;DHT22;11858;51.056;3.712;2023-04-25T10:19:27;14.60;99.90
23371;DHT22;11858;51.056;3.712;2023-04-25T10:24:29;14.40;99.90
23371;DHT22;11858;51.056;3.712;2023-04-25T10:26:56;14.00;99.90
23371;DHT22;11858;51.056;3.712;2023-04-25T10:29:24;14.10;99.90
23371;DHT22;11858;51.056;3.712;2023-04-25T10:31:50;13.70;99.90
23371;DHT22;11858;51.056;3.712;2023-04-25T10:34:17;13.50;99.90
23371;DHT22;11858;51.056;3.712;2023-04-25T10:36:43;13.60;99.90
23371;DHT22;11858;51.056;3.712;2023-04-25T10:39:25;14.40;99.90
23371;DHT22;11858;51.056;3.712;2023-04-25T10:41:58;16.50;99.90
23371;DHT22;11858;51.056;3.712;2023-04-25T10:44:28;17.50;99.90
23371;DHT22;11858;51.056;3.712;2023-04-25T10:47:06;17.50;99.90
23371;DHT22;11858;51.056;3.712;2023-04-25T10:54:51;17.60;99.90
23371;DHT22;11858;51.056;3.712;2023-04-25T10:57:46;17.50;99.90
23371;DHT22;11858;51.056;3.712;2023-04-25T11:00:19;17.00;99.90
23371;DHT22;11858;51.056;3.712;2023-04-25T11:02:52;17.10;99.90
23371;DHT22;11858;51.056;3.712;2023-04-25T11:05:37;16.90;99.90
23371;DHT22;11858;51.056;3.712;2023-04-25T11:08:11;16.80;99.90
23371;DHT22;11858;51.056;3.712;2023-04-25T11:10:37;17.20;99.90
23371;DHT22;11858;51.056;3.712;2023-04-25T11:13:05;17.60;99.90
23371;DHT22;11858;51.056;3.712;2023-04-25T11:15:31;17.90;99.90
23371;DHT22;11858;51.056;3.712;2023-04-25T11:17:56;18.20;99.90
23371;DHT22;11858;51.056;3.712;2023-04-25T11:20:25;17.30;99.90
23371;DHT22;11858;51.056;3.712;2023-04-25T11:22:51;17.00;99.90
23371;DHT22;11858;51.056;3.712;2023-04-25T11:25:17;16.90;99.90
23371;DHT22;11858;51.056;3.712;2023-04-25T11:27:50;16.80;99.90
23371;DHT22;11858;51.056;3.712;2023-04-25T11:30:17;16.60;99.90
23371;DHT22;11858;51.056;3.712;2023-04-25T11:32:43;15.80;99.90
23371;DHT22;11858;51.056;3.712;2023-04-25T11:35:09;15.60;99.90
23371;DHT22;11858;51.056;3.712;2023-04-25T11:37:35;16.10;99.90
23371;DHT22;11858;51.056;3.712;2023-04-25T11:40:03;16.00;99.90
23371;DHT22;11858;51.056;3.712;2023-04-25T11:42:32;15.80;99.90
23371;DHT22;11858;51.056;3.712;2023-04-25T11:44:58;15.90;99.90
23371;DHT22;11858;51.056;3.712;2023-04-25T11:47:31;16.40;99.90
23371;DHT22;11858;51.056;3.712;2023-04-25T11:50:01;16.50;99.90
23371;DHT22;11858;51.056;3.712;2023-04-25T11:52:41;17.80;99.90
23371;DHT22;11858;51.056;3.712;2023-04-25T11:55:08;19.30;99.90
23371;DHT22;11858;51.056;3.712;2023-04-25T11:57:35;20.00;99.90
23371;DHT22;11858;51.056;3.712;2023-04-25T12:00:12;19.90;99.90
23371;DHT22;11858;51.056;3.712;2023-04-25T12:02:42;19.10;99.90
23371;DHT22;11858;51.056;3.712;2023-04-25T12:05:10;18.30;99.90
23371;DHT22;11858;51.056;3.712;2023-04-25T12:07:36;18.70;99.90
23371;DHT22;11858;51.056;3.712;2023-04-25T12:10:09;18.60;99.90
23371;DHT22;11858;51.056;3.712;2023-04-25T12:12:36;17.60;99.90
23371;DHT22;11858;51.056;3.712;2023-04-25T12:15:12;17.80;99.90
23371;DHT22;11858;51.056;3.712;2023-04-25T12:17:41;18.60;99.90
23371;DHT22;11858;51.056;3.712;2023-04-25T12:20:17;19.00;99.90
23371;DHT22;11858;51.056;3.712;2023-04-25T12:22:46;19.50;99.90
23371;DHT22;11858;51.056;3.712;2023-04-25T12:25:43;20.30;99.90
23371;DHT22;11858;51.056;3.712;2023-04-25T12:31:01;20.70;97.90
23371;DHT22;11858;51.056;3.712;2023-04-25T12:33:30;19.50;95.80
23371;DHT22;11858;51.056;3.712;2023-04-25T12:35:57;18.10;96.60
23371;DHT22;11858;51.056;3.712;2023-04-25T12:38:27;17.20;98.70
23371;DHT22;11858;51.056;3.712;2023-04-25T12:40:53;16.70;99.20
23371;DHT22;11858;51.056;3.712;2023-04-25T12:43:19;16.10;99.90
23371;DHT22;11858;51.056;3.712;2023-04-25T12:45:49;15.80;99.90
23371;DHT22;11858;51.056;3.712;2023-04-25T12:48:16;15.70;99.90
23371;DHT22;11858;51.056;3.712;2023-04-25T12:50:42;15.70;99.90
23371;DHT22;11858;51.056;3.712;2023-04-25T12:53:09;15.70;99.90
23371;DHT22;11858;51.056;3.712;2023-04-25T12:55:34;16.50;99.90
23371;DHT22;11858;51.056;3.712;2023-04-25T12:58:00;18.20;99.90
23371;DHT22;11858;51.056;3.712;2023-04-25T13:00:26;19.30;99.90
23371;DHT22;11858;51.056;3.712;2023-04-25T13:02:52;18.80;99.90
23371;DHT22;11858;51.056;3.712;2023-04-25T13:05:17;17.70;99.90
23371;DHT22;11858;51.056;3.712;2023-04-25T13:07:43;16.70;99.90
23371;DHT22;11858;51.056;3.712;2023-04-25T13:10:09;16.10;99.90
23371;DHT22;11858;51.056;3.712;2023-04-25T13:12:35;16.00;99.90
23371;DHT22;11858;51.056;3.712;2023-04-25T13:15:00;15.80;99.90
23371;DHT22;11858;51.056;3.712;2023-04-25T13:17:26;16.10;99.90
23371;DHT22;11858;51.056;3.712;2023-04-25T13:19:51;17.20;99.90
23371;DHT22;11858;51.056;3.712;2023-04-25T13:22:17;18.70;99.90
23371;DHT22;11858;51.056;3.712;2023-04-25T13:24:45;19.70;99.90
23371;DHT22;11858;51.056;3.712;2023-04-25T13:27:12;18.90;99.90
23371;DHT22;11858;51.056;3.712;2023-04-25T13:29:37;18.50;99.90
23371;DHT22;11858;51.056;3.712;2023-04-25T13:32:06;18.20;99.90
23371;DHT22;11858;51.056;3.712;2023-04-25T13:34:31;17.50;99.90
23371;DHT22;11858;51.056;3.712;2023-04-25T13:36:57;16.50;99.90
23371;DHT22;11858;51.056;3.712;2023-04-25T13:39:23;16.20;99.90
23371;DHT22;11858;51.056;3.712;2023-04-25T13:41:48;15.60;99.90
23371;DHT22;11858;51.056;3.712;2023-04-25T13:44:14;14.90;99.90
23371;DHT22;11858;51.056;3.712;2023-04-25T13:46:39;15.20;99.90
23371;DHT22;11858;51.056;3.712;2023-04-25T13:49:05;15.80;99.90
23371;DHT22;11858;51.056;3.712;2023-04-25T13:51:31;17.10;99.90
23371;DHT22;11858;51.056;3.712;2023-04-25T13:53:57;18.70;99.90
23371;DHT22;11858;51.056;3.712;2023-04-25T13:56:23;19.00;99.90
23371;DHT22;11858;51.056;3.712;2023-04-25T13:58:51;18.00;99.90
23371;DHT22;11858;51.056;3.712;2023-04-25T14:01:18;17.30;99.90
23371;DHT22;11858;51.056;3.712;2023-04-25T14:03:45;16.80;99.90
23371;DHT22;11858;51.056;3.712;2023-04-25T14:06:11;16.60;99.90
23371;DHT22;11858;51.056;3.712;2023-04-25T14:08:38;16.60;99.90
23371;DHT22;11858;51.056;3.712;2023-04-25T14:11:04;17.30;99.90
23371;DHT22;11858;51.056;3.712;2023-04-25T14:13:30;18.70;99.90
23371;DHT22;11858;51.056;3.712;2023-04-25T14:15:55;19.10;99.90
23371;DHT22;11858;51.056;3.712;2023-04-25T14:18:21;18.50;98.00
23371;DHT22;11858;51.056;3.712;2023-04-25T14:20:47;19.10;99.70
23371;DHT22;11858;51.056;3.712;2023-04-25T14:23:13;19.70;98.30
23371;DHT22;11858;51.056;3.712;2023-04-25T14:25:39;20.40;96.70
23371;DHT22;11858;51.056;3.712;2023-04-25T14:28:05;20.80;96.20
23371;DHT22;11858;51.056;3.712;2023-04-25T14:30:31;21.00;96.40
23371;DHT22;11858;51.056;3.712;2023-04-25T14:32:57;22.00;96.30
23371;DHT22;11858;51.056;3.712;2023-04-25T14:35:23;22.80;94.40
23371;DHT22;11858;51.056;3.712;2023-04-25T14:37:48;22.40;90.60
23371;DHT22;11858;51.056;3.712;2023-04-25T14:40:14;20.90;91.60
23371;DHT22;11858;51.056;3.712;2023-04-25T14:42:41;21.20;92.80
23371;DHT22;11858;51.056;3.712;2023-04-25T14:45:07;22.20;91.00
23371;DHT22;11858;51.056;3.712;2023-04-25T14:47:36;21.60;88.60
23371;DHT22;11858;51.056;3.712;2023-04-25T14:50:02;20.10;90.90
23371;DHT22;11858;51.056;3.712;2023-04-25T14:52:29;19.10;91.50
23371;DHT22;11858;51.056;3.712;2023-04-25T14:54:56;18.00;92.80
23371;DHT22;11858;51.056;3.712;2023-04-25T14:57:22;17.10;93.80
23371;DHT22;11858;51.056;3.712;2023-04-25T14:59:47;16.40;95.80
23371;DHT22;11858;51.056;3.712;2023-04-25T15:02:13;16.10;96.80
23371;DHT22;11858;51.056;3.712;2023-04-25T15:04:39;15.80;99.30
23371;DHT22;11858;51.056;3.712;2023-04-25T15:07:04;15.40;99.70
23371;DHT22;11858;51.056;3.712;2023-04-25T15:09:30;15.70;99.80
23371;DHT22;11858;51.056;3.712;2023-04-25T15:11:57;16.00;99.40
23371;DHT22;11858;51.056;3.712;2023-04-25T15:14:23;17.10;99.90
23371;DHT22;11858;51.056;3.712;2023-04-25T15:16:48;18.20;98.90
23371;DHT22;11858;51.056;3.712;2023-04-25T15:19:14;19.50;94.90
23371;DHT22;11858;51.056;3.712;2023-04-25T15:21:40;20.90;93.40
23371;DHT22;11858;51.056;3.712;2023-04-25T15:24:06;21.70;91.60
23371;DHT22;11858;51.056;3.712;2023-04-25T15:26:31;21.50;90.10
23371;DHT22;11858;51.056;3.712;2023-04-25T15:28:57;21.50;90.60
23371;DHT22;11858;51.056;3.712;2023-04-25T15:31:23;20.60;91.60
23371;DHT22;11858;51.056;3.712;2023-04-25T15:33:48;20.40;92.10
23371;DHT22;11858;51.056;3.712;2023-04-25T15:36:14;20.80;91.80
23371;DHT22;11858;51.056;3.712;2023-04-25T15:38:42;21.10;91.70
23371;DHT22;11858;51.056;3.712;2023-04-25T15:41:07;21.00;92.20
23371;DHT22;11858;51.056;3.712;2023-04-25T15:43:33;21.80;90.80
23371;DHT22;11858;51.056;3.712;2023-04-25T15:46:03;22.00;89.20
23371;DHT22;11858;51.056;3.712;2023-04-25T15:48:28;21.90;88.00
23371;DHT22;11858;51.056;3.712;2023-04-25T15:50:54;21.60;90.00
23371;DHT22;11858;51.056;3.712;2023-04-25T15:53:20;22.30;90.80